createdAt,value
2023-01-13T00:54:25.025Z,26.05
2023-01-13T00:55:25.974Z,26.08
2023-01-13T00:56:39.736Z,26.04
2023-01-13T00:57:25.963Z,26.04
2023-01-13T00:58:25.949Z,26.05
2023-01-13T00:59:25.946Z,26.05
2023-01-13T01:00:25.930Z,26.01
2023-01-13T01:01:26.042Z,26.02
2023-01-13T01:02:25.981Z,26.02
2023-01-13T01:03:25.901Z,26.05
2023-01-13T01:04:25.899Z,26.02
2023-01-13T01:05:25.889Z,26.07
2023-01-13T01:06:25.878Z,26.06
2023-01-13T01:07:25.879Z,26.03
2023-01-13T01:08:25.865Z,26.03
2023-01-13T01:09:25.847Z,26.02
2023-01-13T01:10:25.863Z,26.07
2023-01-13T01:11:25.839Z,26.08
2023-01-13T01:12:25.832Z,26.07
2023-01-13T01:13:25.823Z,26.09
2023-01-13T01:14:25.806Z,26.02
2023-01-13T01:15:25.792Z,26.03
2023-01-13T01:16:25.879Z,26.02
2023-01-13T01:17:25.773Z,26.07
2023-01-13T01:18:25.808Z,26.08
2023-01-13T01:19:25.769Z,26.05
2023-01-13T01:20:25.763Z,26.07
2023-01-13T01:21:25.746Z,26.06
2023-01-13T01:22:25.729Z,26.05
2023-01-13T01:23:25.724Z,26.03
2023-01-13T01:24:25.720Z,26.01
2023-01-13T01:25:25.708Z,26.05
2023-01-13T01:26:25.726Z,26.02
2023-01-13T01:27:25.689Z,26.02
2023-01-13T01:28:25.677Z,26.06
2023-01-13T01:29:25.700Z,26.05
2023-01-13T01:30:25.662Z,26.09
2023-01-13T01:31:25.698Z,26.01
2023-01-13T01:32:25.640Z,26.03
2023-01-13T01:33:25.632Z,25.99
2023-01-13T01:34:25.633Z,25.99
2023-01-13T01:35:25.620Z,26.01
2023-01-13T01:36:25.614Z,26.01
2023-01-13T01:37:25.594Z,25.98
2023-01-13T01:38:25.588Z,26.02
2023-01-13T01:39:25.610Z,25.98
2023-01-13T01:40:25.568Z,26.01
2023-01-13T01:41:25.566Z,26.01
2023-01-13T01:42:25.589Z,26.01
2023-01-13T01:43:25.540Z,25.99
2023-01-13T01:44:25.537Z,25.99
2023-01-13T01:45:25.527Z,25.98
2023-01-13T01:46:25.606Z,26.01
2023-01-13T01:47:25.512Z,25.98
2023-01-13T01:48:25.499Z,25.95
2023-01-13T01:49:25.495Z,26.01
2023-01-13T01:50:26.081Z,26.03
2023-01-13T01:51:25.471Z,25.97
2023-01-13T01:52:25.466Z,25.98
2023-01-13T01:53:25.466Z,25.98
2023-01-13T01:54:25.449Z,25.97
2023-01-13T01:55:25.443Z,25.94
2023-01-13T01:56:25.431Z,25.93
2023-01-13T01:57:25.435Z,25.95
2023-01-13T01:58:25.435Z,25.97
2023-01-13T01:59:25.399Z,25.95
2023-01-13T02:00:25.392Z,25.99
2023-01-13T02:01:25.546Z,25.93
2023-01-13T02:02:25.433Z,25.93
2023-01-13T02:03:25.376Z,25.94
2023-01-13T02:04:25.360Z,25.91
2023-01-13T02:05:25.347Z,25.94
2023-01-13T02:06:25.350Z,25.93
2023-01-13T02:07:25.384Z,25.97
2023-01-13T02:08:25.327Z,25.95
2023-01-13T02:09:25.315Z,25.94
2023-01-13T02:10:25.317Z,25.92
2023-01-13T02:11:25.304Z,25.92
2023-01-13T02:12:25.323Z,25.99
2023-01-13T02:13:25.280Z,25.91
2023-01-13T02:14:25.296Z,25.96
2023-01-13T02:15:25.263Z,25.91
2023-01-13T02:16:25.307Z,25.94
2023-01-13T02:17:25.247Z,25.92
2023-01-13T02:18:25.245Z,25.99
2023-01-13T02:19:25.233Z,25.92
2023-01-13T02:20:25.216Z,25.95
2023-01-13T02:21:25.215Z,25.95
2023-01-13T02:22:25.202Z,25.88
2023-01-13T02:23:25.197Z,25.94
2023-01-13T02:24:25.196Z,25.92
2023-01-13T02:25:25.197Z,25.96
2023-01-13T02:26:25.167Z,25.91
2023-01-13T02:27:25.156Z,25.92
2023-01-13T02:28:25.157Z,25.90
2023-01-13T02:29:25.140Z,25.92
2023-01-13T02:30:25.167Z,26.01
2023-01-13T02:31:25.205Z,25.91
2023-01-13T02:32:25.119Z,25.87
2023-01-13T02:33:25.129Z,25.91
2023-01-13T02:34:25.110Z,25.91
2023-01-13T02:35:25.095Z,25.87
2023-01-13T02:36:25.084Z,25.91
2023-01-13T02:37:25.080Z,25.92
2023-01-13T02:38:25.071Z,25.91
2023-01-13T02:39:25.054Z,25.99
2023-01-13T02:40:25.071Z,25.83
2023-01-13T02:41:25.044Z,25.90
2023-01-13T02:42:25.034Z,25.92
2023-01-13T02:43:25.020Z,25.90
2023-01-13T02:44:25.013Z,25.92
2023-01-13T02:45:25.049Z,25.90
2023-01-13T02:46:25.027Z,25.87
2023-01-13T02:47:24.993Z,25.88
2023-01-13T02:48:25.008Z,25.84
2023-01-13T02:49:24.964Z,25.85
2023-01-13T02:50:24.974Z,25.87
2023-01-13T02:51:24.943Z,25.84
2023-01-13T02:52:24.939Z,25.84
2023-01-13T02:53:24.932Z,25.86
2023-01-13T02:54:24.920Z,25.81
2023-01-13T02:55:24.912Z,25.86
2023-01-13T02:56:24.904Z,25.92
2023-01-13T02:57:24.892Z,25.87
2023-01-13T02:58:24.943Z,25.87
2023-01-13T02:59:24.874Z,25.87
2023-01-13T03:00:24.866Z,25.88
2023-01-13T03:01:25.008Z,25.87
2023-01-13T03:02:24.922Z,25.86
2023-01-13T03:03:24.903Z,25.86
2023-01-13T03:04:24.837Z,25.84
2023-01-13T03:05:24.823Z,25.76
2023-01-13T03:06:24.814Z,25.85
2023-01-13T03:07:24.811Z,25.87
2023-01-13T03:08:24.799Z,25.87
2023-01-13T03:09:24.802Z,25.84
2023-01-13T03:10:24.784Z,25.84
2023-01-13T03:11:24.773Z,25.84
2023-01-13T03:12:24.760Z,25.86
2023-01-13T03:13:24.753Z,25.80
2023-01-13T03:14:24.743Z,25.78
2023-01-13T03:15:24.743Z,25.82
2023-01-13T03:16:24.796Z,25.81
2023-01-13T03:17:24.736Z,25.84
2023-01-13T03:18:24.728Z,25.80
2023-01-13T03:19:24.705Z,25.81
2023-01-13T03:20:24.691Z,25.77
2023-01-13T03:21:24.729Z,25.77
2023-01-13T03:22:24.670Z,25.77
2023-01-13T03:23:24.698Z,25.79
2023-01-13T03:24:24.664Z,25.81
2023-01-13T03:25:24.644Z,25.81
2023-01-13T03:26:24.648Z,25.77
2023-01-13T03:27:24.625Z,25.83
2023-01-13T03:28:24.632Z,25.79
2023-01-13T03:29:24.612Z,25.80
2023-01-13T03:30:24.701Z,25.83
2023-01-13T03:31:24.597Z,25.79
2023-01-13T03:32:24.583Z,25.77
2023-01-13T03:33:24.571Z,25.76
2023-01-13T03:34:24.588Z,25.80
2023-01-13T03:35:24.552Z,25.76
2023-01-13T03:36:24.549Z,25.78
2023-01-13T03:37:24.547Z,25.79
2023-01-13T03:38:24.532Z,25.80
2023-01-13T03:39:24.522Z,25.80
2023-01-13T03:40:24.529Z,25.76
2023-01-13T03:41:24.517Z,25.87
2023-01-13T03:42:24.505Z,25.79
2023-01-13T03:43:24.490Z,25.77
2023-01-13T03:44:24.542Z,25.83
2023-01-13T03:45:24.471Z,25.83
2023-01-13T03:46:24.549Z,25.84
2023-01-13T03:47:24.443Z,25.79
2023-01-13T03:48:24.444Z,25.77
2023-01-13T03:49:24.428Z,25.83
2023-01-13T03:50:24.463Z,25.82
2023-01-13T03:51:24.412Z,25.82
2023-01-13T03:52:24.414Z,25.77
2023-01-13T03:53:24.408Z,25.76
2023-01-13T03:54:24.388Z,25.75
2023-01-13T03:55:24.373Z,25.76
2023-01-13T03:56:24.371Z,25.77
2023-01-13T03:57:24.357Z,25.79
2023-01-13T03:58:24.349Z,25.80
2023-01-13T03:59:24.345Z,25.79
2023-01-13T04:00:24.337Z,25.79
2023-01-13T04:01:24.449Z,25.77
2023-01-13T04:02:24.316Z,25.81
2023-01-13T04:03:24.417Z,25.80
2023-01-13T04:04:24.300Z,25.77
2023-01-13T04:05:24.287Z,25.81
2023-01-13T04:06:24.314Z,25.80
2023-01-13T04:07:24.271Z,25.77
2023-01-13T04:08:24.262Z,25.83
2023-01-13T04:09:24.252Z,25.77
2023-01-13T04:10:24.249Z,25.76
2023-01-13T04:11:24.234Z,25.81
2023-01-13T04:12:24.224Z,25.81
2023-01-13T04:13:24.224Z,25.83
2023-01-13T04:14:24.208Z,25.80
2023-01-13T04:15:24.275Z,25.81
2023-01-13T04:16:24.250Z,25.79
2023-01-13T04:17:24.186Z,25.77
2023-01-13T04:19:24.160Z,25.77
2023-01-13T04:20:24.160Z,25.76
2023-01-13T04:21:24.149Z,25.76
2023-01-13T04:22:24.176Z,25.76
2023-01-13T04:23:24.128Z,25.72
2023-01-13T04:24:24.124Z,25.68
2023-01-13T04:25:24.108Z,25.74
2023-01-13T04:26:24.104Z,25.77
2023-01-13T04:27:24.116Z,25.75
2023-01-13T04:28:24.094Z,25.76
2023-01-13T04:29:24.082Z,25.76
2023-01-13T04:30:24.074Z,25.77
2023-01-13T04:31:24.152Z,25.76
2023-01-13T04:32:24.049Z,25.79
2023-01-13T04:33:24.039Z,25.77
2023-01-13T04:34:24.146Z,25.80
2023-01-13T04:35:24.027Z,25.79
2023-01-13T04:36:24.015Z,25.77
2023-01-13T04:37:24.019Z,25.76
2023-01-13T04:38:24.022Z,25.76
2023-01-13T04:39:23.990Z,25.76
2023-01-13T04:40:23.977Z,25.76
2023-01-13T04:41:23.976Z,25.80
2023-01-13T04:42:23.960Z,25.76
2023-01-13T04:43:23.956Z,25.74
2023-01-13T04:44:23.944Z,25.76
2023-01-13T04:45:23.944Z,25.73
2023-01-13T04:46:23.981Z,25.74
2023-01-13T04:48:23.911Z,25.81
2023-01-13T04:49:23.900Z,25.80
2023-01-13T04:50:23.890Z,25.80
2023-01-13T04:51:23.890Z,25.77
2023-01-13T04:52:23.886Z,25.80
2023-01-13T04:53:23.866Z,25.76
2023-01-13T04:54:23.883Z,25.77
2023-01-13T04:55:23.856Z,25.79
2023-01-13T04:56:23.849Z,25.81
2023-01-13T04:57:23.829Z,25.77
2023-01-13T04:58:23.828Z,25.75
2023-01-13T04:59:23.819Z,25.81
2023-01-13T05:00:23.794Z,25.82
2023-01-13T05:01:23.927Z,25.82
2023-01-13T05:02:23.860Z,25.77
2023-01-13T05:03:23.770Z,25.79
2023-01-13T05:04:23.797Z,25.81
2023-01-13T05:05:23.759Z,25.79
2023-01-13T05:06:23.756Z,25.81
2023-01-13T05:07:23.739Z,25.80
2023-01-13T05:08:23.731Z,25.80
2023-01-13T05:09:23.721Z,25.79
2023-01-13T05:10:24.222Z,25.78
2023-01-13T05:11:23.713Z,25.81
2023-01-13T05:12:23.694Z,25.77
2023-01-13T05:13:23.693Z,25.80
2023-01-13T05:14:23.702Z,25.79
2023-01-13T05:15:23.669Z,25.79
2023-01-13T05:16:23.764Z,25.79
2023-01-13T05:17:23.647Z,25.77
2023-01-13T05:18:23.642Z,25.78
2023-01-13T05:19:23.641Z,25.81
2023-01-13T05:20:23.625Z,25.78
2023-01-13T05:21:23.641Z,25.78
2023-01-13T05:22:23.601Z,25.79
2023-01-13T05:23:23.634Z,25.78
2023-01-13T05:24:23.668Z,25.78
2023-01-13T05:25:23.576Z,25.78
2023-01-13T05:26:23.599Z,25.76
2023-01-13T05:27:23.568Z,25.76
2023-01-13T05:28:23.555Z,25.80
2023-01-13T05:29:23.555Z,25.77
2023-01-13T05:30:23.537Z,25.80
2023-01-13T05:31:23.577Z,25.78
2023-01-13T05:32:23.528Z,25.81
2023-01-13T05:33:23.525Z,25.79
2023-01-13T05:34:23.504Z,25.73
2023-01-13T05:35:23.509Z,25.75
2023-01-13T05:36:23.497Z,25.79
2023-01-13T05:37:23.549Z,25.77
2023-01-13T05:38:23.496Z,25.77
2023-01-13T05:39:23.481Z,25.77
2023-01-13T05:40:23.454Z,25.77
2023-01-13T05:41:23.440Z,25.73
2023-01-13T05:42:23.458Z,25.71
2023-01-13T05:43:23.428Z,25.71
2023-01-13T05:44:23.411Z,25.77
2023-01-13T05:45:23.406Z,25.78
2023-01-13T05:46:23.423Z,25.81
2023-01-13T05:47:23.382Z,25.78
2023-01-13T05:48:23.380Z,25.83
2023-01-13T05:49:23.378Z,25.74
2023-01-13T05:50:23.359Z,25.78
2023-01-13T05:51:23.350Z,25.79
2023-01-13T05:52:23.337Z,25.81
2023-01-13T05:53:23.330Z,25.75
2023-01-13T05:54:23.331Z,25.76
2023-01-13T05:55:23.325Z,25.71
2023-01-13T05:56:23.304Z,25.76
2023-01-13T05:57:23.301Z,25.77
2023-01-13T05:58:23.316Z,25.77
2023-01-13T05:59:23.283Z,25.71
2023-01-13T06:00:23.287Z,25.71
2023-01-13T06:01:23.360Z,25.71
2023-01-13T06:02:23.251Z,25.76
2023-01-13T06:03:23.248Z,25.81
2023-01-13T06:04:23.268Z,25.75
2023-01-13T06:05:23.236Z,25.74
2023-01-13T06:06:23.223Z,25.74
2023-01-13T06:07:23.208Z,25.74
2023-01-13T06:08:23.680Z,25.78
2023-01-13T06:09:23.189Z,25.74
2023-01-13T06:10:23.180Z,25.74
2023-01-13T06:11:23.192Z,25.73
2023-01-13T06:12:23.166Z,25.76
2023-01-13T06:13:23.160Z,25.71
2023-01-13T06:14:23.176Z,25.71
2023-01-13T06:15:23.139Z,25.76
2023-01-13T06:16:23.195Z,25.74
2023-01-13T06:17:23.122Z,25.74
2023-01-13T06:18:23.138Z,25.77
2023-01-13T06:19:23.136Z,25.70
2023-01-13T06:20:23.100Z,25.73
2023-01-13T06:21:23.187Z,25.81
2023-01-13T06:22:23.080Z,25.72
2023-01-13T06:23:23.086Z,25.77
2023-01-13T06:24:23.183Z,25.80
2023-01-13T06:25:23.066Z,25.90
2023-01-13T06:26:23.054Z,25.87
2023-01-13T06:27:23.057Z,25.91
2023-01-13T06:28:23.189Z,25.98
2023-01-13T06:29:23.020Z,25.96
2023-01-13T06:30:23.037Z,26.10
2023-01-13T06:31:23.086Z,26.03
2023-01-13T06:32:22.988Z,26.06
2023-01-13T06:33:23.028Z,26.06
2023-01-13T06:34:22.973Z,26.07
2023-01-13T06:35:22.966Z,26.15
2023-01-13T06:36:23.191Z,26.13
2023-01-13T06:37:22.958Z,26.09
2023-01-13T06:38:22.953Z,26.10
2023-01-13T06:39:22.935Z,26.14
2023-01-13T06:40:23.927Z,26.16
2023-01-13T06:41:22.911Z,26.18
2023-01-13T06:43:23.210Z,26.19
2023-01-13T06:44:22.881Z,26.24
2023-01-13T06:45:22.874Z,26.29
2023-01-13T06:46:22.959Z,26.24
2023-01-13T06:47:22.854Z,26.17
2023-01-13T06:48:24.655Z,26.23
2023-01-13T06:49:22.852Z,26.24
2023-01-13T06:50:22.823Z,26.30
2023-01-13T06:51:22.825Z,26.20
2023-01-13T06:52:23.209Z,26.23
2023-01-13T06:53:23.232Z,26.28
2023-01-13T06:54:22.802Z,26.24
2023-01-13T06:55:23.377Z,26.25
2023-01-13T06:56:22.822Z,26.27
2023-01-13T06:57:22.782Z,26.25
2023-01-13T06:58:23.195Z,26.25
2023-01-13T06:59:22.767Z,26.14
2023-01-13T07:00:22.797Z,26.07
2023-01-13T07:01:22.947Z,26.05
2023-01-13T07:02:22.920Z,25.91
2023-01-13T07:03:23.198Z,25.92
2023-01-13T07:04:22.708Z,25.88
2023-01-13T07:05:22.688Z,26.00
2023-01-13T07:06:22.694Z,26.31
2023-01-13T07:07:22.670Z,26.56
2023-01-13T07:08:22.904Z,26.82
2023-01-13T07:09:22.660Z,26.91
2023-01-13T07:10:22.826Z,27.04
2023-01-13T07:11:22.707Z,27.15
2023-01-13T07:12:22.657Z,27.29
2023-01-13T07:13:22.618Z,27.28
2023-01-13T07:14:22.652Z,27.38
2023-01-13T07:16:22.642Z,27.69
2023-01-13T07:17:22.632Z,27.66
2023-01-13T07:18:23.168Z,27.84
2023-01-13T07:19:22.706Z,27.92
2023-01-13T07:20:22.588Z,27.99
2023-01-13T07:21:21.582Z,28.05
2023-01-13T07:22:22.575Z,28.16
2023-01-13T07:23:22.738Z,28.24
2023-01-13T07:24:22.965Z,28.54
2023-01-13T07:25:22.518Z,28.38
2023-01-13T07:26:22.548Z,28.22
2023-01-13T07:27:22.496Z,28.24
2023-01-13T07:28:22.490Z,28.23
2023-01-13T07:29:22.805Z,28.30
2023-01-13T07:30:22.510Z,28.27
2023-01-13T07:31:22.503Z,28.16
2023-01-13T07:32:22.450Z,28.15
2023-01-13T07:33:22.458Z,28.16
2023-01-13T07:34:22.470Z,27.97
2023-01-13T07:35:22.420Z,28.01
2023-01-13T07:36:22.420Z,27.89
2023-01-13T07:37:22.709Z,27.88
2023-01-13T07:38:22.391Z,27.84
2023-01-13T07:39:22.389Z,27.78
2023-01-13T07:40:22.714Z,27.72
2023-01-13T07:41:22.372Z,27.97
2023-01-13T07:42:22.365Z,27.62
2023-01-13T07:43:22.354Z,27.58
2023-01-13T07:44:22.354Z,27.58
2023-01-13T07:45:22.371Z,27.55
2023-01-13T07:46:22.322Z,27.57
2023-01-13T07:47:22.319Z,27.65
2023-01-13T07:48:22.712Z,27.71
2023-01-13T07:49:22.293Z,27.67
2023-01-13T07:50:22.311Z,27.66
2023-01-13T07:51:22.307Z,27.68
2023-01-13T07:52:22.270Z,27.68
2023-01-13T07:53:22.776Z,27.63
2023-01-13T07:54:35.227Z,27.52
2023-01-13T07:55:22.249Z,27.46
2023-01-13T07:56:22.724Z,27.49
2023-01-13T07:57:22.239Z,27.54
2023-01-13T07:58:22.215Z,27.53
2023-01-13T07:59:22.218Z,27.61
2023-01-13T08:00:22.198Z,27.58
2023-01-13T08:01:22.395Z,27.56
2023-01-13T08:02:22.458Z,27.54
2023-01-13T08:03:22.169Z,27.56
2023-01-13T08:04:22.170Z,27.56
2023-01-13T08:05:22.164Z,27.46
2023-01-13T08:06:22.180Z,27.49
2023-01-13T08:07:22.153Z,27.52
2023-01-13T08:08:22.157Z,27.49
2023-01-13T08:09:22.248Z,27.44
2023-01-13T08:10:22.496Z,27.44
2023-01-13T08:11:23.611Z,27.39
2023-01-13T08:12:22.246Z,27.42
2023-01-13T08:13:22.228Z,27.45
2023-01-13T08:15:22.217Z,27.34
2023-01-13T08:16:22.246Z,27.38
2023-01-13T08:17:22.220Z,27.35
2023-01-13T08:18:22.489Z,27.37
2023-01-13T08:19:22.181Z,27.34
2023-01-13T08:20:22.246Z,27.35
2023-01-13T08:21:22.175Z,27.30
2023-01-13T08:22:22.180Z,27.26
2023-01-13T08:23:22.139Z,27.29
2023-01-13T08:24:22.143Z,27.29
2023-01-13T08:25:22.311Z,27.22
2023-01-13T08:26:22.172Z,27.22
2023-01-13T08:27:22.132Z,27.17
2023-01-13T08:28:22.116Z,27.23
2023-01-13T08:29:22.135Z,27.25
2023-01-13T08:30:22.268Z,27.23
2023-01-13T08:31:22.161Z,27.19
2023-01-13T08:32:22.698Z,27.19
2023-01-13T08:33:22.088Z,27.20
2023-01-13T08:34:22.227Z,27.18
2023-01-13T08:35:22.256Z,27.22
2023-01-13T08:36:22.078Z,27.17
2023-01-13T08:37:22.039Z,27.16
2023-01-13T08:38:22.284Z,27.16
2023-01-13T08:39:22.031Z,27.12
2023-01-13T08:40:22.049Z,27.12
2023-01-13T08:41:21.992Z,27.10
2023-01-13T08:42:21.978Z,27.07
2023-01-13T08:43:22.260Z,27.09
2023-01-13T08:44:22.343Z,27.05
2023-01-13T08:45:22.415Z,27.05
2023-01-13T08:46:22.024Z,27.03
2023-01-13T08:47:21.986Z,27.06
2023-01-13T08:48:22.256Z,27.03
2023-01-13T08:49:22.268Z,26.99
2023-01-13T08:51:21.914Z,27.00
2023-01-13T08:52:21.902Z,26.97
2023-01-13T08:53:22.231Z,27.01
2023-01-13T08:54:21.917Z,26.93
2023-01-13T08:55:21.892Z,26.97
2023-01-13T08:56:22.254Z,27.01
2023-01-13T08:57:21.991Z,26.98
2023-01-13T08:58:21.836Z,27.04
2023-01-13T08:59:21.847Z,26.97
2023-01-13T09:00:21.835Z,27.04
2023-01-13T09:01:22.413Z,27.02
2023-01-13T09:02:21.843Z,26.99
2023-01-13T09:03:21.816Z,27.05
2023-01-13T09:04:21.858Z,26.96
2023-01-13T09:05:21.792Z,26.98
2023-01-13T09:06:22.260Z,27.00
2023-01-13T09:07:21.775Z,27.00
2023-01-13T09:08:21.763Z,27.01
2023-01-13T09:09:21.763Z,26.95
2023-01-13T09:10:21.787Z,27.01
2023-01-13T09:11:21.773Z,26.98
2023-01-13T09:12:21.747Z,26.95
2023-01-13T09:13:21.718Z,26.95
2023-01-13T09:14:21.767Z,26.98
2023-01-13T09:15:21.729Z,26.94
2023-01-13T09:16:21.694Z,27.00
2023-01-13T09:17:21.673Z,26.97
2023-01-13T09:18:21.670Z,26.97
2023-01-13T09:19:21.656Z,26.95
2023-01-13T09:20:21.776Z,26.97
2023-01-13T09:21:21.642Z,26.95
2023-01-13T09:22:21.650Z,26.97
2023-01-13T09:23:21.627Z,26.93
2023-01-13T09:24:21.621Z,26.97
2023-01-13T09:25:21.758Z,26.94
2023-01-13T09:26:21.711Z,26.95
2023-01-13T09:27:21.570Z,26.94
2023-01-13T09:28:21.576Z,26.94
2023-01-13T09:29:21.580Z,26.99
2023-01-13T09:30:21.772Z,26.94
2023-01-13T09:31:21.596Z,26.97
2023-01-13T09:32:21.517Z,26.91
2023-01-13T09:33:21.529Z,26.90
2023-01-13T09:34:21.532Z,26.93
2023-01-13T09:35:21.510Z,26.88
2023-01-13T09:36:21.504Z,26.89
2023-01-13T09:37:21.778Z,26.89
2023-01-13T09:38:21.498Z,26.87
2023-01-13T09:39:21.514Z,26.90
2023-01-13T09:40:21.494Z,26.90
2023-01-13T09:41:21.480Z,26.82
2023-01-13T09:42:21.814Z,26.87
2023-01-13T09:44:21.435Z,26.86
2023-01-13T09:45:21.424Z,26.88
2023-01-13T09:46:21.472Z,26.90
2023-01-13T09:47:21.783Z,26.89
2023-01-13T09:48:21.530Z,26.86
2023-01-13T09:49:21.431Z,26.87
2023-01-13T09:50:21.446Z,26.83
2023-01-13T09:51:21.809Z,26.83
2023-01-13T09:52:21.378Z,26.83
2023-01-13T09:53:21.378Z,26.86
2023-01-13T09:54:21.351Z,26.78
2023-01-13T09:55:21.357Z,26.79
2023-01-13T09:56:21.790Z,26.86
2023-01-13T09:57:21.791Z,26.82
2023-01-13T09:59:21.318Z,26.86
2023-01-13T10:00:21.278Z,26.80
2023-01-13T10:01:21.318Z,26.79
2023-01-13T10:02:21.392Z,26.76
2023-01-13T10:03:21.350Z,26.73
2023-01-13T10:04:21.328Z,26.77
2023-01-13T10:05:21.299Z,26.78
2023-01-13T10:06:21.263Z,26.80
2023-01-13T10:07:23.038Z,26.78
2023-01-13T10:08:21.202Z,26.79
2023-01-13T10:09:21.213Z,26.76
2023-01-13T10:10:21.289Z,26.72
2023-01-13T10:11:21.253Z,26.78
2023-01-13T10:12:21.319Z,26.77
2023-01-13T10:13:21.184Z,26.74
2023-01-13T10:14:21.177Z,26.73
2023-01-13T10:15:21.165Z,26.72
2023-01-13T10:16:21.273Z,26.72
2023-01-13T10:17:21.294Z,26.78
2023-01-13T10:18:21.140Z,26.71
2023-01-13T10:19:21.108Z,26.75
2023-01-13T10:20:21.104Z,26.73
2023-01-13T10:21:21.089Z,26.72
2023-01-13T10:22:21.075Z,26.72
2023-01-13T10:23:21.066Z,26.72
2023-01-13T10:24:21.064Z,26.71
2023-01-13T10:25:21.068Z,26.74
2023-01-13T10:27:21.034Z,26.71
2023-01-13T10:28:21.118Z,26.74
2023-01-13T10:29:21.116Z,26.72
2023-01-13T10:30:21.394Z,26.69
2023-01-13T10:31:21.047Z,26.73
2023-01-13T10:32:20.983Z,26.76
2023-01-13T10:33:20.997Z,26.75
2023-01-13T10:34:20.973Z,26.79
2023-01-13T10:35:21.291Z,26.79
2023-01-13T10:36:20.972Z,26.78
2023-01-13T10:37:21.278Z,26.80
2023-01-13T10:38:20.945Z,26.84
2023-01-13T10:39:20.927Z,26.91
2023-01-13T10:41:20.927Z,26.91
2023-01-13T10:42:21.275Z,26.99
2023-01-13T10:43:20.939Z,27.20
2023-01-13T10:44:20.918Z,27.18
2023-01-13T10:45:20.880Z,27.27
2023-01-13T10:46:20.995Z,27.37
2023-01-13T10:47:21.294Z,27.39
2023-01-13T10:48:20.876Z,27.45
2023-01-13T10:49:21.191Z,27.48
2023-01-13T10:50:20.871Z,27.48
2023-01-13T10:53:20.796Z,27.52
2023-01-13T10:54:20.804Z,27.59
2023-01-13T10:55:20.799Z,27.55
2023-01-13T10:56:20.782Z,27.56
2023-01-13T10:57:20.791Z,27.69
2023-01-13T10:58:20.827Z,27.69
2023-01-13T10:59:20.816Z,27.70
2023-01-13T11:00:20.920Z,27.71
2023-01-13T11:02:25.965Z,27.85
2023-01-13T11:03:20.729Z,27.89
2023-01-13T11:04:20.817Z,27.96
2023-01-13T11:05:20.750Z,27.89
2023-01-13T11:06:20.709Z,27.98
2023-01-13T11:07:20.672Z,27.96
2023-01-13T11:08:20.664Z,28.07
2023-01-13T11:09:20.665Z,28.06
2023-01-13T11:10:20.682Z,28.05
2023-01-13T11:11:20.639Z,28.12
2023-01-13T11:12:20.769Z,28.13
2023-01-13T11:13:20.795Z,28.21
2023-01-13T11:14:20.638Z,28.27
2023-01-13T11:15:20.632Z,28.23
2023-01-13T11:16:21.096Z,28.25
2023-01-13T11:17:20.804Z,28.39
2023-01-13T11:18:20.792Z,27.22
2023-01-13T11:20:20.592Z,27.55
2023-01-13T11:21:20.580Z,27.49
2023-01-13T11:22:20.883Z,27.66
2023-01-13T11:23:20.809Z,28.09
2023-01-13T11:24:20.527Z,28.10
2023-01-13T11:25:20.514Z,28.15
2023-01-13T11:26:20.508Z,28.13
2023-01-13T11:27:20.520Z,28.06
2023-01-13T11:28:20.831Z,28.10
2023-01-13T11:29:20.501Z,28.11
2023-01-13T11:30:20.471Z,28.12
2023-01-13T11:31:20.588Z,28.11
2023-01-13T11:32:20.452Z,28.11
2023-01-13T11:33:20.439Z,28.10
2023-01-13T11:34:20.464Z,28.18
2023-01-13T11:35:20.423Z,28.10
2023-01-13T11:36:20.804Z,28.06
2023-01-13T11:37:20.833Z,28.02
2023-01-13T11:38:20.445Z,28.06
2023-01-13T11:39:20.815Z,28.02
2023-01-13T11:41:20.797Z,28.00
2023-01-13T11:42:20.814Z,28.00
2023-01-13T11:43:20.359Z,27.96
2023-01-13T11:44:20.354Z,27.89
2023-01-13T11:45:20.340Z,28.00
2023-01-13T11:46:20.412Z,27.93
2023-01-13T11:47:20.830Z,27.94
2023-01-13T11:48:20.307Z,27.93
2023-01-13T11:49:22.268Z,25.73
2023-01-13T11:50:20.317Z,23.80
2023-01-13T11:51:20.274Z,24.12
2023-01-13T11:52:20.315Z,24.81
2023-01-13T11:53:20.283Z,23.88
2023-01-13T11:54:20.301Z,24.27
2023-01-13T11:55:22.537Z,24.23
2023-01-13T11:56:20.251Z,25.07
2023-01-13T11:57:20.223Z,24.66
2023-01-13T11:58:20.228Z,24.52
2023-01-13T11:59:20.209Z,23.94
2023-01-13T12:00:20.207Z,24.98
2023-01-13T12:01:23.069Z,25.45
2023-01-13T12:02:20.276Z,25.91
2023-01-13T12:03:20.247Z,26.34
2023-01-13T12:04:20.315Z,26.44
2023-01-13T12:05:20.154Z,26.70
2023-01-13T12:06:20.171Z,27.03
2023-01-13T12:07:22.857Z,27.38
2023-01-13T12:08:20.139Z,27.52
2023-01-13T12:09:20.335Z,27.80
2023-01-13T12:10:20.113Z,27.75
2023-01-13T12:11:20.136Z,27.91
2023-01-13T12:12:20.103Z,27.96
2023-01-13T12:13:20.085Z,28.07
2023-01-13T12:14:20.313Z,28.21
2023-01-13T12:15:20.065Z,28.20
2023-01-13T12:17:20.052Z,28.23
2023-01-13T12:18:20.079Z,28.30
2023-01-13T12:19:20.343Z,28.37
2023-01-13T12:20:20.024Z,28.35
2023-01-13T12:21:20.076Z,28.48
2023-01-13T12:22:20.052Z,28.40
2023-01-13T12:23:20.003Z,28.36
2023-01-13T12:24:19.986Z,28.41
2023-01-13T12:25:19.974Z,28.42
2023-01-13T12:26:19.986Z,28.49
2023-01-13T12:27:19.961Z,28.48
2023-01-13T12:28:20.086Z,28.50
2023-01-13T12:29:19.944Z,28.45
2023-01-13T12:30:19.950Z,28.45
2023-01-13T12:31:19.960Z,28.60
2023-01-13T12:32:19.935Z,28.85
2023-01-13T12:33:19.906Z,28.74
2023-01-13T12:34:19.892Z,28.88
2023-01-13T12:35:20.319Z,28.87
2023-01-13T12:36:19.890Z,28.92
2023-01-13T12:37:19.864Z,29.01
2023-01-13T12:38:19.892Z,29.13
2023-01-13T12:39:19.851Z,29.20
2023-01-13T12:40:19.851Z,29.24
2023-01-13T12:41:19.825Z,29.25
2023-01-13T12:42:19.821Z,29.21
2023-01-13T12:43:19.819Z,29.22
2023-01-13T12:44:19.811Z,29.32
2023-01-13T12:45:19.819Z,29.07
2023-01-13T12:46:19.780Z,29.25
2023-01-13T12:47:19.784Z,29.31
2023-01-13T12:48:19.787Z,29.31
2023-01-13T12:49:19.819Z,29.46
2023-01-13T12:50:19.753Z,29.45
2023-01-13T12:51:19.749Z,29.45
2023-01-13T12:52:19.752Z,29.44
2023-01-13T12:53:19.749Z,29.52
2023-01-13T12:54:19.745Z,29.63
2023-01-13T12:55:19.721Z,27.88
2023-01-13T12:56:19.695Z,26.33
2023-01-13T12:57:19.689Z,25.67
2023-01-13T12:58:19.683Z,25.04
2023-01-13T12:59:19.703Z,25.58
2023-01-13T13:00:19.669Z,25.67
2023-01-13T13:01:19.782Z,26.12
2023-01-13T13:02:19.897Z,25.97
2023-01-13T13:03:19.761Z,26.17
2023-01-13T13:04:19.629Z,25.92
2023-01-13T13:05:19.831Z,26.23
2023-01-13T13:06:19.863Z,25.88
2023-01-13T13:07:19.855Z,26.32
2023-01-13T13:08:19.597Z,26.54
2023-01-13T13:09:19.604Z,26.78
2023-01-13T13:10:19.686Z,26.90
2023-01-13T13:11:19.824Z,26.98
2023-01-13T13:12:19.609Z,26.85
2023-01-13T13:13:19.546Z,27.28
2023-01-13T13:14:19.545Z,27.87
2023-01-13T13:15:19.593Z,28.18
2023-01-13T13:16:19.586Z,28.45
2023-01-13T13:17:19.527Z,28.63
2023-01-13T13:18:19.829Z,28.83
2023-01-13T13:19:19.495Z,29.01
2023-01-13T13:20:19.501Z,29.14
2023-01-13T13:21:19.493Z,29.05
2023-01-13T13:22:19.478Z,29.13
2023-01-13T13:23:19.467Z,29.20
2023-01-13T13:24:19.863Z,29.21
2023-01-13T13:25:19.439Z,29.17
2023-01-13T13:26:19.467Z,29.23
2023-01-13T13:27:19.432Z,29.13
2023-01-13T13:28:19.427Z,29.17
2023-01-13T13:29:19.462Z,29.15
2023-01-13T13:30:19.835Z,29.22
2023-01-13T13:31:19.414Z,29.27
2023-01-13T13:32:19.379Z,28.83
2023-01-13T13:33:19.370Z,28.50
2023-01-13T13:34:19.853Z,28.08
2023-01-13T13:35:19.355Z,27.69
2023-01-13T13:36:19.340Z,27.54
2023-01-13T13:37:19.341Z,27.51
2023-01-13T13:38:19.325Z,27.48
2023-01-13T13:39:19.324Z,27.91
2023-01-13T13:40:19.317Z,28.39
2023-01-13T13:42:19.319Z,28.85
2023-01-13T13:43:19.287Z,29.02
2023-01-13T13:44:19.341Z,29.05
2023-01-13T13:45:19.258Z,29.12
2023-01-13T13:46:19.452Z,29.15
2023-01-13T13:47:19.256Z,29.24
2023-01-13T13:48:19.246Z,29.31
2023-01-13T13:49:19.366Z,29.30
2023-01-13T13:50:19.268Z,29.41
2023-01-13T13:51:19.370Z,29.45
2023-01-13T13:52:19.339Z,29.55
2023-01-13T13:53:19.265Z,29.62
2023-01-13T13:54:19.201Z,29.60
2023-01-13T13:55:19.346Z,29.55
2023-01-13T13:56:19.160Z,29.55
2023-01-13T13:57:19.152Z,29.58
2023-01-13T13:58:19.382Z,29.54
2023-01-13T13:59:19.235Z,29.64
2023-01-13T14:00:19.167Z,29.68
2023-01-13T14:01:19.252Z,29.82
2023-01-13T14:02:19.379Z,29.86
2023-01-13T14:03:19.095Z,29.89